Time;durP1;ratioP1;P1;durP2;ratioP2;P2;SDS_P1;SDS_P2;PMS_P1;PMS_P2;Temp;Humidity;BMP_temperature;BMP_pressure;BME280_temperature;BME280_humidity;BME280_pressure;Samples;Min_cycle;Max_cycle;Signal;HPM_P1;HPM_P2
2022/11/27 00:01:40;;;;;;;19.03;8.07;;;9.50;62.00;;;;;;5074109;27;20473;-88
2022/11/27 00:04:08;;;;;;;25.40;8.20;;;9.50;61.80;;;;;;5090057;27;20503;-90
2022/11/27 00:06:39;;;;;;;17.50;8.60;;;9.50;61.60;;;;;;5091724;27;21286;-87
2022/11/27 00:09:08;;;;;;;25.93;9.50;;;9.40;61.60;;;;;;5092925;27;20465;-87
2022/11/27 00:11:38;;;;;;;20.13;9.17;;;9.40;61.90;;;;;;5089189;27;20453;-88
2022/11/27 00:14:05;;;;;;;15.63;8.17;;;9.40;61.90;;;;;;5077313;27;20945;-87
2022/11/27 00:16:32;;;;;;;29.73;8.77;;;9.40;61.40;;;;;;5096766;27;20450;-85
2022/11/27 00:18:59;;;;;;;16.03;7.07;;;9.10;61.00;;;;;;5091546;27;20468;-88
2022/11/27 00:21:29;;;;;;;16.37;7.90;;;8.90;62.60;;;;;;5094192;27;20442;-87
2022/11/27 00:23:59;;;;;;;19.57;8.77;;;9.10;62.30;;;;;;5107648;27;20458;-90
2022/11/27 00:26:28;;;;;;;18.13;7.87;;;9.20;61.50;;;;;;5074000;27;20439;-87
2022/11/27 00:28:56;;;;;;;21.93;9.87;;;9.30;61.20;;;;;;5093742;27;20470;-88
2022/11/27 00:31:27;;;;;;;16.50;9.60;;;9.50;61.00;;;;;;5092168;27;20438;-91
2022/11/27 00:33:55;;;;;;;18.87;8.17;;;9.60;60.40;;;;;;5070926;27;20441;-89
2022/11/27 00:36:22;;;;;;;16.50;8.00;;;9.50;59.80;;;;;;5069211;27;20447;-87
2022/11/27 00:38:49;;;;;;;18.63;9.20;;;9.50;59.80;;;;;;5076876;27;20461;-87
2022/11/27 00:41:20;;;;;;;28.33;10.00;;;9.50;59.70;;;;;;5092064;27;20465;-88
2022/11/27 00:43:47;;;;;;;17.47;9.20;;;9.50;59.50;;;;;;5093690;27;20494;-86
2022/11/27 00:46:15;;;;;;;16.20;9.30;;;9.40;59.70;;;;;;5075581;27;20439;-90
2022/11/27 00:48:43;;;;;;;21.97;10.20;;;9.20;59.60;;;;;;5107257;27;20446;-90
2022/11/27 00:51:12;;;;;;;23.30;10.57;;;9.20;60.10;;;;;;5078615;28;21058;-87
2022/11/27 00:53:40;;;;;;;20.00;11.80;;;9.20;59.90;;;;;;5077132;27;20491;-87
2022/11/27 00:56:08;;;;;;;19.20;8.90;;;9.30;60.10;;;;;;5110988;27;20438;-89
2022/11/27 00:58:37;;;;;;;18.23;9.60;;;9.30;59.80;;;;;;5085094;27;20954;-90
2022/11/27 01:01:06;;;;;;;17.10;7.83;;;9.30;59.50;;;;;;5095795;27;20446;-87
2022/11/27 01:03:34;;;;;;;19.93;9.70;;;9.20;59.80;;;;;;5091187;27;20993;-93
2022/11/27 01:06:03;;;;;;;25.97;10.50;;;9.20;60.10;;;;;;5071874;27;20450;-90
2022/11/27 01:08:30;;;;;;;18.83;8.23;;;9.20;59.80;;;;;;5065351;27;21009;-88
2022/11/27 01:10:58;;;;;;;15.23;7.93;;;9.30;59.80;;;;;;5074606;27;20441;-88
2022/11/27 01:13:28;;;;;;;10.40;6.87;;;9.30;59.20;;;;;;5117249;27;20521;-88
2022/11/27 01:16:00;;;;;;;12.90;6.70;;;9.20;59.00;;;;;;5097775;27;20450;-87
2022/11/27 01:18:28;;;;;;;15.40;7.13;;;9.10;59.00;;;;;;5113821;27;20496;-84
2022/11/27 01:20:56;;;;;;;13.67;7.47;;;9.10;59.00;;;;;;5098144;27;20507;-86
2022/11/27 01:23:23;;;;;;;14.23;7.30;;;8.90;59.10;;;;;;5096213;27;20477;-87
2022/11/27 01:25:52;;;;;;;13.00;7.43;;;9.00;59.30;;;;;;5114764;27;20904;-87
2022/11/27 01:28:19;;;;;;;14.30;7.13;;;9.00;59.20;;;;;;5114342;27;20446;-86
2022/11/27 01:30:46;;;;;;;13.67;8.13;;;9.00;59.10;;;;;;5084293;27;20514;-89
2022/11/27 01:33:15;;;;;;;12.70;8.10;;;9.10;58.90;;;;;;5083588;27;20553;-86
2022/11/27 01:35:42;;;;;;;18.20;7.97;;;9.10;58.70;;;;;;5087206;27;20489;-87
2022/11/27 01:38:09;;;;;;;15.83;8.53;;;9.10;58.60;;;;;;5080839;27;20503;-86
2022/11/27 01:40:37;;;;;;;20.33;8.70;;;9.10;58.60;;;;;;5101186;27;20477;-88
2022/11/27 01:43:04;;;;;;;11.20;7.23;;;9.10;58.50;;;;;;5103173;27;20509;-87
2022/11/27 01:45:31;;;;;;;12.03;7.10;;;9.20;58.20;;;;;;5096320;27;20485;-89
2022/11/27 01:48:01;;;;;;;11.10;6.93;;;9.10;58.20;;;;;;5114110;27;20442;-86
2022/11/27 01:50:34;;;;;;;11.40;6.53;;;9.10;58.20;;;;;;5097794;27;20545;-86
2022/11/27 01:53:05;;;;;;;9.47;6.47;;;9.00;58.10;;;;;;5119388;27;20526;-87
2022/11/27 01:55:34;;;;;;;9.20;5.60;;;9.10;58.20;;;;;;5089503;27;20467;-88
2022/11/27 01:58:06;;;;;;;7.70;5.63;;;9.00;58.20;;;;;;5107828;27;20502;-88
2022/11/27 02:00:34;;;;;;;8.70;5.13;;;9.00;58.40;;;;;;5106682;27;20560;-87
2022/11/27 02:03:01;;;;;;;8.40;4.77;;;9.00;58.20;;;;;;5098764;27;20446;-87
2022/11/27 02:05:32;;;;;;;7.80;5.27;;;8.90;58.00;;;;;;5102662;27;20438;-88
2022/11/27 02:08:02;;;;;;;8.93;5.60;;;8.90;58.30;;;;;;5114334;27;20441;-87
2022/11/27 02:10:46;;;;;;;9.07;5.93;;;8.90;58.30;;;;;;5118122;27;20561;-88
2022/11/27 02:13:18;;;;;;;10.03;5.53;;;8.90;58.20;;;;;;5106143;27;20567;-87
2022/11/27 02:15:51;;;;;;;8.40;5.30;;;8.90;57.90;;;;;;5111482;27;20462;-89
2022/11/27 02:18:25;;;;;;;35.73;6.20;;;8.80;57.90;;;;;;5096909;27;20465;-89
2022/11/27 02:20:58;;;;;;;10.60;5.80;;;8.70;57.70;;;;;;5114587;27;20504;-87
2022/11/27 02:23:54;;;;;;;11.43;5.87;;;8.50;57.80;;;;;;5114005;27;20562;-87
2022/11/27 02:26:44;;;;;;;48.57;6.67;;;8.40;58.00;;;;;;5116278;27;20493;-87
2022/11/27 02:29:14;;;;;;;10.07;5.30;;;8.20;58.70;;;;;;5116100;27;20528;-86
2022/11/27 02:31:49;;;;;;;15.67;5.67;;;7.90;58.80;;;;;;5114881;27;20457;-86
2022/11/27 02:34:24;;;;;;;10.70;6.07;;;8.00;59.20;;;;;;5079813;28;20800;-86
2022/11/27 02:36:59;;;;;;;11.33;6.00;;;7.90;59.10;;;;;;5080370;27;20454;-88
2022/11/27 02:39:33;;;;;;;11.27;6.23;;;8.00;59.30;;;;;;5097801;27;20573;-88
2022/11/27 02:42:07;;;;;;;10.80;6.00;;;8.10;59.20;;;;;;5100073;28;20495;-89
2022/11/27 02:44:43;;;;;;;10.50;6.23;;;8.10;58.70;;;;;;5103788;27;20468;-87
2022/11/27 02:47:13;;;;;;;14.47;5.97;;;8.10;58.40;;;;;;5114647;27;20448;-87
2022/11/27 02:49:43;;;;;;;7.57;5.80;;;8.10;58.20;;;;;;5093522;27;20553;-86
2022/11/27 02:52:13;;;;;;;13.90;6.37;;;7.90;58.30;;;;;;5097015;28;20927;-87
2022/11/27 02:54:41;;;;;;;12.33;5.97;;;7.60;59.20;;;;;;5113573;27;20470;-87
2022/11/27 02:57:10;;;;;;;15.50;6.10;;;7.60;59.20;;;;;;5100835;28;20536;-87
2022/11/27 02:59:41;;;;;;;13.33;6.50;;;7.50;59.50;;;;;;5113825;27;20560;-87
2022/11/27 03:02:15;;;;;;;16.63;7.20;;;7.50;59.60;;;;;;5099855;28;20445;-87
2022/11/27 03:04:46;;;;;;;15.47;7.13;;;7.40;59.70;;;;;;5105911;27;20647;-87
2022/11/27 03:07:19;;;;;;;11.80;6.07;;;7.10;61.00;;;;;;5114987;27;20513;-87
2022/11/27 03:09:49;;;;;;;18.30;6.63;;;7.20;60.80;;;;;;5112202;27;20517;-87
2022/11/27 03:12:18;;;;;;;15.27;6.57;;;7.00;61.30;;;;;;5116914;27;20500;-86
2022/11/27 03:14:48;;;;;;;16.10;7.53;;;7.20;61.20;;;;;;5114189;27;20435;-87
2022/11/27 03:17:28;;;;;;;18.00;5.20;;;7.50;60.50;;;;;;5096535;28;20567;-86
2022/11/27 03:20:00;;;;;;;47.50;8.97;;;7.30;59.40;;;;;;5097643;27;20956;-88
2022/11/27 03:22:30;;;;;;;13.10;7.33;;;6.80;61.00;;;;;;5080647;27;20442;-87
2022/11/27 03:24:58;;;;;;;15.87;7.50;;;7.00;61.90;;;;;;5083142;27;20474;-87
2022/11/27 03:27:29;;;;;;;17.90;8.80;;;7.20;61.70;;;;;;5080802;27;20450;-86
2022/11/27 03:30:00;;;;;;;19.50;8.17;;;7.30;61.50;;;;;;5117117;27;20489;-88
2022/11/27 03:32:30;;;;;;;22.27;8.03;;;7.50;60.60;;;;;;5084870;27;20481;-87
2022/11/27 03:34:57;;;;;;;11.57;7.13;;;7.40;60.20;;;;;;5118182;27;20540;-88
2022/11/27 03:37:25;;;;;;;17.10;7.60;;;7.40;60.50;;;;;;5120602;27;20497;-88
2022/11/27 03:39:52;;;;;;;13.17;7.37;;;7.20;60.70;;;;;;5117506;27;20507;-88
2022/11/27 03:42:26;;;;;;;14.40;8.20;;;7.20;60.80;;;;;;5117417;27;20485;-87
2022/11/27 03:45:03;;;;;;;18.60;8.10;;;7.40;60.90;;;;;;5097510;27;20557;-87
2022/11/27 03:47:45;;;;;;;27.63;8.50;;;7.50;60.70;;;;;;5119488;27;20458;-86
2022/11/27 03:50:26;;;;;;;18.90;8.77;;;7.50;59.90;;;;;;5118833;27;20523;-89
2022/11/27 03:53:04;;;;;;;16.57;8.50;;;7.60;60.50;;;;;;5091762;27;20482;-87
2022/11/27 03:55:42;;;;;;;20.57;8.27;;;7.80;59.80;;;;;;5119598;27;20470;-87
2022/11/27 03:58:14;;;;;;;13.50;7.87;;;7.90;59.30;;;;;;5119265;27;20442;-88
2022/11/27 04:00:45;;;;;;;14.03;9.00;;;8.00;58.90;;;;;;5118468;27;20497;-87
2022/11/27 04:03:13;;;;;;;13.33;7.07;;;8.00;59.20;;;;;;5120426;27;20515;-87
2022/11/27 04:05:41;;;;;;;24.30;9.20;;;8.10;58.70;;;;;;5099623;27;21047;-87
2022/11/27 04:08:08;;;;;;;18.57;8.60;;;8.10;58.40;;;;;;5091959;27;20451;-88
2022/11/27 04:10:35;;;;;;;24.50;8.83;;;8.00;58.00;;;;;;5116701;27;20466;-86
2022/11/27 04:13:02;;;;;;;23.57;8.23;;;8.00;58.20;;;;;;5121358;27;20446;-89
2022/11/27 04:15:29;;;;;;;16.50;8.27;;;8.00;58.50;;;;;;5116663;27;20537;-85
2022/11/27 04:17:58;;;;;;;18.43;9.23;;;8.00;58.50;;;;;;5099058;27;20449;-86
2022/11/27 04:20:25;;;;;;;12.43;7.40;;;8.00;58.60;;;;;;5115908;27;20513;-87
2022/11/27 04:22:52;;;;;;;16.93;7.30;;;8.00;58.20;;;;;;5118638;27;20454;-87
2022/11/27 04:25:19;;;;;;;11.93;7.03;;;8.00;57.90;;;;;;5098922;27;20458;-88
2022/11/27 04:27:46;;;;;;;21.53;7.70;;;8.00;58.50;;;;;;5118686;27;20474;-87
2022/11/27 04:30:14;;;;;;;13.37;8.47;;;8.00;57.80;;;;;;5116737;27;21045;-90
2022/11/27 04:32:41;;;;;;;13.53;7.73;;;8.00;57.60;;;;;;5098183;27;20458;-87
2022/11/27 04:35:10;;;;;;;18.73;8.27;;;7.80;58.00;;;;;;5094913;27;20466;-87
2022/11/27 04:37:37;;;;;;;13.67;7.70;;;7.70;58.50;;;;;;5094663;27;20443;-88
2022/11/27 04:40:06;;;;;;;18.30;8.60;;;7.50;58.20;;;;;;5113137;27;21039;-87
2022/11/27 04:42:52;;;;;;;27.40;9.00;;;7.10;58.90;;;;;;5108138;27;20529;-88
2022/11/27 04:45:19;;;;;;;19.20;8.33;;;6.60;60.50;;;;;;5083581;27;20561;-87
2022/11/27 04:47:47;;;;;;;18.73;7.93;;;6.80;61.00;;;;;;5116873;27;20941;-87
2022/11/27 04:50:15;;;;;;;17.53;9.03;;;7.00;60.60;;;;;;5118640;27;20462;-85
2022/11/27 04:52:42;;;;;;;20.80;8.40;;;7.20;60.30;;;;;;5115306;27;20566;-87
2022/11/27 04:55:10;;;;;;;13.83;7.93;;;7.10;59.40;;;;;;5114364;27;20439;-88
2022/11/27 04:57:37;;;;;;;14.70;9.00;;;6.90;60.60;;;;;;5106487;27;21009;-88
2022/11/27 05:00:05;;;;;;;28.07;10.13;;;6.80;60.90;;;;;;5108139;27;20576;-87
2022/11/27 05:02:33;;;;;;;17.63;8.77;;;6.90;60.50;;;;;;5116841;27;20545;-87
2022/11/27 05:05:00;;;;;;;15.63;9.00;;;6.80;60.90;;;;;;5122771;27;20995;-89
2022/11/27 05:07:28;;;;;;;18.97;8.53;;;6.70;61.00;;;;;;5101485;27;20466;-87
2022/11/27 05:09:55;;;;;;;18.67;9.43;;;6.70;60.60;;;;;;5098242;27;20555;-86
2022/11/27 05:12:22;;;;;;;17.33;9.93;;;6.70;60.50;;;;;;5100698;27;20454;-87
2022/11/27 05:14:50;;;;;;;20.27;9.60;;;6.80;60.80;;;;;;5115299;27;20470;-86
2022/11/27 05:17:17;;;;;;;37.63;9.70;;;6.90;60.40;;;;;;5116074;27;20863;-87
2022/11/27 05:19:44;;;;;;;24.23;10.13;;;6.20;60.50;;;;;;5107315;27;21003;-88
2022/11/27 05:22:11;;;;;;;20.53;9.40;;;6.20;62.50;;;;;;5096210;27;20450;-87
2022/11/27 05:24:39;;;;;;;16.50;9.13;;;6.60;62.20;;;;;;5116398;27;20451;-87
2022/11/27 05:27:06;;;;;;;19.90;11.33;;;6.80;61.50;;;;;;5097335;27;20539;-89
2022/11/27 05:29:34;;;;;;;21.80;11.20;;;7.00;60.50;;;;;;5095466;27;20531;-88
2022/11/27 05:32:01;;;;;;;21.77;11.97;;;6.90;59.80;;;;;;5115272;27;20442;-89
2022/11/27 05:34:28;;;;;;;22.30;11.57;;;7.00;60.30;;;;;;5076041;27;20491;-86
2022/11/27 05:36:55;;;;;;;19.40;9.70;;;7.10;59.50;;;;;;5116475;27;20499;-89
2022/11/27 05:39:22;;;;;;;32.77;10.50;;;6.90;59.20;;;;;;5106598;27;20494;-87
2022/11/27 05:41:51;;;;;;;18.50;10.33;;;6.60;60.10;;;;;;5097885;27;20465;-87
2022/11/27 05:44:18;;;;;;;23.27;10.43;;;6.90;60.60;;;;;;5106662;27;21010;-87
2022/11/27 05:46:45;;;;;;;19.57;10.50;;;6.90;60.20;;;;;;5100211;27;20470;-87
2022/11/27 05:49:14;;;;;;;23.30;10.87;;;7.00;61.10;;;;;;5096013;28;20486;-87
2022/11/27 05:51:41;;;;;;;18.23;9.67;;;7.10;60.00;;;;;;5116592;27;20478;-87
2022/11/27 05:54:09;;;;;;;21.83;10.13;;;7.10;60.00;;;;;;5115843;27;20492;-87
2022/11/27 05:56:36;;;;;;;22.63;11.80;;;7.00;59.70;;;;;;5114568;27;20507;-87
2022/11/27 05:59:05;;;;;;;20.20;10.33;;;7.10;59.80;;;;;;5112497;27;20494;-87
2022/11/27 06:01:32;;;;;;;27.03;10.77;;;6.80;60.50;;;;;;5099233;27;20521;-87
2022/11/27 06:04:00;;;;;;;34.63;11.23;;;6.70;60.60;;;;;;5090029;27;20442;-87
2022/11/27 06:06:27;;;;;;;19.03;10.50;;;6.50;60.80;;;;;;5098695;27;21049;-87
2022/11/27 06:08:54;;;;;;;14.23;9.00;;;6.40;61.50;;;;;;5075298;27;20497;-88
2022/11/27 06:11:23;;;;;;;19.30;10.33;;;6.70;61.40;;;;;;5105742;27;20482;-89
2022/11/27 06:13:50;;;;;;;20.60;9.90;;;6.50;60.80;;;;;;5116243;27;20434;-84
2022/11/27 06:16:22;;;;;;;22.67;11.40;;;6.20;61.70;;;;;;5116898;27;20446;-87
2022/11/27 06:18:50;;;;;;;19.50;9.53;;;6.40;62.30;;;;;;5118352;27;20446;-87
2022/11/27 06:21:17;;;;;;;22.27;12.67;;;6.70;61.90;;;;;;5089461;27;20539;-88
2022/11/27 06:23:46;;;;;;;24.43;11.67;;;6.90;61.30;;;;;;5097478;27;20442;-86
2022/11/27 06:26:15;;;;;;;30.13;13.07;;;7.00;61.10;;;;;;5115214;27;20501;-88
2022/11/27 06:28:44;;;;;;;16.47;9.70;;;7.20;60.90;;;;;;5087786;27;20458;-89
2022/11/27 06:31:14;;;;;;;21.73;10.97;;;7.30;60.00;;;;;;5114694;27;20492;-86
2022/11/27 06:33:42;;;;;;;15.03;9.00;;;6.90;59.70;;;;;;5086182;27;20496;-88
2022/11/27 06:36:10;;;;;;;20.40;11.50;;;6.70;60.50;;;;;;5079185;28;20446;-89
2022/11/27 06:38:38;;;;;;;19.23;10.60;;;7.00;60.60;;;;;;5081307;27;20890;-87
2022/11/27 06:41:07;;;;;;;17.10;10.50;;;6.80;60.20;;;;;;5094381;28;20802;-88
2022/11/27 06:43:34;;;;;;;17.30;10.90;;;7.00;60.10;;;;;;5097706;27;20443;-87
2022/11/27 06:46:03;;;;;;;21.63;11.07;;;6.90;59.90;;;;;;5113948;27;21208;-91
2022/11/27 06:48:30;;;;;;;22.53;11.60;;;6.90;60.10;;;;;;5099216;27;20475;-86
2022/11/27 06:51:01;;;;;;;23.40;12.03;;;6.70;60.50;;;;;;5088872;27;20479;-87
2022/11/27 06:53:28;;;;;;;18.50;10.13;;;7.00;60.30;;;;;;5086498;27;20446;-87
2022/11/27 06:55:55;;;;;;;26.50;10.77;;;7.00;60.20;;;;;;5113778;27;20446;-87
2022/11/27 06:58:23;;;;;;;21.57;10.70;;;7.10;59.90;;;;;;5093566;27;20431;-88
2022/11/27 07:00:50;;;;;;;31.87;10.03;;;7.20;59.20;;;;;;5112637;27;20477;-87
2022/11/27 07:03:17;;;;;;;25.57;12.63;;;7.30;59.50;;;;;;5114187;27;20501;-86
2022/11/27 07:05:44;;;;;;;24.47;13.10;;;7.30;58.70;;;;;;5114658;27;20509;-88
2022/11/27 07:08:13;;;;;;;25.10;12.00;;;7.30;59.00;;;;;;5095494;27;20446;-87
2022/11/27 07:10:40;;;;;;;19.13;10.80;;;7.30;59.10;;;;;;5114757;27;20458;-89
2022/11/27 07:13:07;;;;;;;19.80;10.40;;;7.40;59.40;;;;;;5089149;27;20450;-87
2022/11/27 07:15:34;;;;;;;18.87;10.10;;;7.40;59.10;;;;;;5113071;27;20534;-87
2022/11/27 07:18:02;;;;;;;19.80;10.13;;;7.40;59.20;;;;;;5115027;27;20455;-87
2022/11/27 07:20:29;;;;;;;32.93;12.50;;;7.40;58.90;;;;;;5111763;27;20474;-87
2022/11/27 07:22:56;;;;;;;17.10;10.47;;;7.40;58.70;;;;;;5112773;27;20450;-89
2022/11/27 07:25:24;;;;;;;17.70;9.60;;;7.50;58.40;;;;;;5113962;27;20474;-88
2022/11/27 07:27:51;;;;;;;26.50;14.57;;;7.40;58.30;;;;;;5112240;27;20467;-87
2022/11/27 07:30:19;;;;;;;55.33;25.80;;;7.30;58.60;;;;;;5103558;27;20561;-86
2022/11/27 07:32:46;;;;;;;36.70;21.00;;;7.30;58.80;;;;;;5103855;27;20465;-86
2022/11/27 07:35:13;;;;;;;26.80;15.90;;;7.40;58.70;;;;;;5112337;27;20545;-86
2022/11/27 07:37:40;;;;;;;22.80;15.93;;;7.50;58.60;;;;;;5111287;27;20531;-86
2022/11/27 07:40:08;;;;;;;53.90;25.43;;;7.60;58.60;;;;;;5097218;27;20470;-87
2022/11/27 07:42:36;;;;;;;53.60;26.73;;;7.60;58.30;;;;;;5113460;27;20438;-88
2022/11/27 07:45:04;;;;;;;50.63;25.00;;;7.60;58.20;;;;;;5096612;27;20562;-90
2022/11/27 07:47:31;;;;;;;47.03;27.80;;;7.60;58.20;;;;;;5113419;27;20497;-87
2022/11/27 07:49:59;;;;;;;47.87;22.30;;;7.50;58.50;;;;;;5113071;27;21216;-88
2022/11/27 07:52:26;;;;;;;28.63;13.97;;;7.30;59.00;;;;;;5075585;27;20909;-87
2022/11/27 07:54:53;;;;;;;27.87;13.83;;;7.20;59.30;;;;;;5111364;27;20692;-87
2022/11/27 07:57:20;;;;;;;20.00;12.70;;;7.20;59.90;;;;;;5112583;27;20512;-86
2022/11/27 07:59:48;;;;;;;21.60;12.50;;;7.50;59.50;;;;;;5110737;27;20461;-89
2022/11/27 08:02:16;;;;;;;29.83;17.10;;;7.30;59.20;;;;;;5110293;27;20930;-87
2022/11/27 08:04:43;;;;;;;27.00;12.00;;;7.10;59.10;;;;;;5092441;27;20472;-85
2022/11/27 08:07:10;;;;;;;26.67;13.73;;;6.60;60.10;;;;;;5112289;27;20526;-86
2022/11/27 08:09:38;;;;;;;22.67;14.87;;;6.50;61.50;;;;;;5106658;27;21024;-87
2022/11/27 08:12:05;;;;;;;30.10;14.93;;;6.70;61.70;;;;;;5110846;27;20489;-87
2022/11/27 08:14:33;;;;;;;78.93;28.33;;;7.00;61.50;;;;;;5109174;27;20439;-90
2022/11/27 08:17:01;;;;;;;26.33;13.17;;;7.30;60.60;;;;;;5113577;27;20460;-86
2022/11/27 08:19:28;;;;;;;22.07;13.13;;;7.10;59.90;;;;;;5110822;27;20549;-87
2022/11/27 08:21:56;;;;;;;23.33;13.27;;;6.70;61.20;;;;;;5114806;27;20537;-87
2022/11/27 08:24:23;;;;;;;28.80;11.60;;;6.90;61.50;;;;;;5113119;27;20461;-89
2022/11/27 08:26:51;;;;;;;27.13;13.00;;;6.90;61.30;;;;;;5093411;27;20897;-86
2022/11/27 08:29:18;;;;;;;26.83;14.67;;;7.10;61.00;;;;;;5094290;27;20486;-88
2022/11/27 08:31:45;;;;;;;31.30;14.93;;;7.10;60.90;;;;;;5115208;27;20498;-87
2022/11/27 08:34:13;;;;;;;27.77;13.00;;;7.10;61.10;;;;;;5099207;27;20532;-87
2022/11/27 08:36:40;;;;;;;29.00;15.83;;;7.10;60.60;;;;;;5114578;27;20450;-87
2022/11/27 08:39:07;;;;;;;29.63;13.63;;;6.90;61.20;;;;;;5110945;27;21000;-89
2022/11/27 08:41:34;;;;;;;29.30;14.00;;;6.90;61.60;;;;;;5111725;27;20495;-89
2022/11/27 08:44:01;;;;;;;25.63;11.30;;;7.00;61.30;;;;;;5112237;27;20629;-87
2022/11/27 08:46:28;;;;;;;44.40;27.13;;;7.10;61.70;;;;;;5110249;27;20620;-89
2022/11/27 08:48:55;;;;;;;38.63;20.40;;;7.10;60.50;;;;;;5111923;27;20977;-88
2022/11/27 08:51:24;;;;;;;47.17;24.47;;;6.80;61.50;;;;;;5100808;27;20833;-89
2022/11/27 08:53:52;;;;;;;98.40;45.53;;;7.00;62.40;;;;;;5112266;27;20547;-88
2022/11/27 08:56:21;;;;;;;25.33;11.77;;;7.20;61.80;;;;;;5114330;27;20447;-89
2022/11/27 08:58:49;;;;;;;29.27;13.80;;;7.10;61.30;;;;;;5113564;27;20478;-89
2022/11/27 09:01:17;;;;;;;31.63;12.70;;;7.20;61.60;;;;;;5114171;27;21011;-88
2022/11/27 09:03:45;;;;;;;23.07;11.67;;;7.10;61.20;;;;;;5093742;27;20453;-86
2022/11/27 09:06:14;;;;;;;22.03;11.83;;;6.80;62.10;;;;;;5112396;27;20474;-86
2022/11/27 09:08:43;;;;;;;25.73;12.73;;;7.10;62.50;;;;;;5115005;27;20442;-86
2022/11/27 09:11:13;;;;;;;26.40;13.30;;;7.20;61.60;;;;;;5112659;27;20503;-88
2022/11/27 09:13:40;;;;;;;26.70;16.17;;;6.80;62.20;;;;;;5089461;27;20542;-88
2022/11/27 09:16:10;;;;;;;26.77;13.73;;;6.80;63.00;;;;;;5107063;27;21113;-87
2022/11/27 09:18:37;;;;;;;21.00;12.37;;;6.90;62.90;;;;;;5108921;27;20533;-89
2022/11/27 09:21:07;;;;;;;33.20;13.70;;;6.90;62.00;;;;;;5092893;27;21029;-88
2022/11/27 09:23:34;;;;;;;21.93;10.40;;;6.80;63.80;;;;;;5093874;27;20455;-88
2022/11/27 09:26:05;;;;;;;24.93;12.50;;;7.20;63.10;;;;;;5094289;27;20786;-88
2022/11/27 09:28:33;;;;;;;25.80;13.40;;;7.40;61.70;;;;;;5109445;27;20541;-88
2022/11/27 09:31:02;;;;;;;22.73;11.40;;;7.30;61.90;;;;;;5098089;27;20501;-87
2022/11/27 09:33:32;;;;;;;23.23;12.00;;;7.20;61.80;;;;;;5107555;27;20447;-89
2022/11/27 09:36:03;;;;;;;27.47;13.53;;;6.90;62.30;;;;;;5108903;27;21049;-87
2022/11/27 09:38:32;;;;;;;21.07;12.17;;;7.00;62.40;;;;;;5105303;27;20443;-87
2022/11/27 09:41:12;;;;;;;17.83;12.13;;;6.80;63.30;;;;;;5107908;27;20446;-88
2022/11/27 09:43:44;;;;;;;21.60;10.77;;;6.90;63.70;;;;;;5107708;27;20465;-90
2022/11/27 09:46:30;;;;;;;19.50;11.57;;;7.00;63.30;;;;;;5095601;27;20840;-88
2022/11/27 09:48:59;;;;;;;24.73;12.10;;;7.20;62.90;;;;;;5085975;27;20649;-89
2022/11/27 09:51:32;;;;;;;23.33;12.13;;;7.10;63.00;;;;;;5113424;27;20930;-88
2022/11/27 09:54:05;;;;;;;27.10;14.10;;;7.30;62.90;;;;;;5114623;27;20454;-87
2022/11/27 09:56:35;;;;;;;35.30;16.40;;;7.40;62.80;;;;;;5112451;27;20446;-89
2022/11/27 09:59:04;;;;;;;28.03;15.77;;;7.60;62.40;;;;;;5111192;27;20474;-88
2022/11/27 10:01:33;;;;;;;21.33;10.27;;;7.80;62.10;;;;;;5077050;27;20484;-86
2022/11/27 10:04:01;;;;;;;23.20;12.60;;;7.70;60.70;;;;;;5114102;27;20453;-88
2022/11/27 10:06:36;;;;;;;31.93;15.60;;;7.50;61.60;;;;;;5112220;27;20502;-87
2022/11/27 10:09:15;;;;;;;22.30;12.00;;;7.20;62.60;;;;;;5114078;27;20577;-89
2022/11/27 10:11:50;;;;;;;18.23;11.70;;;7.40;63.30;;;;;;5092150;27;21053;-85
2022/11/27 10:14:33;;;;;;;20.30;11.63;;;7.50;62.10;;;;;;5112164;27;20525;-89
2022/11/27 10:17:04;;;;;;;22.13;12.10;;;7.20;63.10;;;;;;5092914;28;20441;-86
2022/11/27 10:19:39;;;;;;;24.03;13.40;;;7.40;63.20;;;;;;5108852;27;20508;-88
2022/11/27 10:22:14;;;;;;;23.53;12.40;;;7.50;63.20;;;;;;5113278;27;20495;-87
2022/11/27 10:24:50;;;;;;;23.57;12.17;;;7.60;63.20;;;;;;5113637;27;20936;-89
2022/11/27 10:27:24;;;;;;;20.10;11.30;;;7.70;62.60;;;;;;5093876;27;20469;-86
2022/11/27 10:29:54;;;;;;;22.53;12.23;;;7.70;63.00;;;;;;5113906;27;20488;-88
2022/11/27 10:32:25;;;;;;;18.30;10.40;;;7.80;62.60;;;;;;5116877;27;20464;-87
2022/11/27 10:34:56;;;;;;;25.43;11.63;;;7.70;62.20;;;;;;5110046;27;20486;-88
2022/11/27 10:37:29;;;;;;;19.17;11.30;;;7.70;62.60;;;;;;5093816;28;20446;-87
2022/11/27 10:39:59;;;;;;;21.23;11.00;;;7.50;63.00;;;;;;5096252;27;20481;-89
2022/11/27 10:42:33;;;;;;;22.43;12.33;;;7.60;63.00;;;;;;5111203;27;20508;-88
2022/11/27 10:45:04;;;;;;;23.20;12.37;;;7.80;63.00;;;;;;5090315;28;20838;-88
2022/11/27 10:47:31;;;;;;;24.63;11.17;;;7.90;61.70;;;;;;5111847;27;20509;-86
2022/11/27 10:49:58;;;;;;;23.23;12.73;;;7.40;62.50;;;;;;5111530;27;20461;-89
2022/11/27 10:52:26;;;;;;;26.50;14.10;;;7.40;63.80;;;;;;5115118;27;20454;-90
2022/11/27 10:54:57;;;;;;;27.10;13.30;;;7.70;63.30;;;;;;5096332;27;20478;-88
2022/11/27 10:57:44;;;;;;;27.93;13.37;;;7.70;63.10;;;;;;5112026;27;20482;-88
2022/11/27 11:00:15;;;;;;;24.77;14.20;;;7.90;63.10;;;;;;5094364;28;20477;-87
2022/11/27 11:02:42;;;;;;;24.87;12.80;;;8.10;62.40;;;;;;5109703;27;20552;-86
2022/11/27 11:05:22;;;;;;;27.80;13.47;;;7.90;62.00;;;;;;5110108;27;20484;-87
2022/11/27 11:07:57;;;;;;;21.60;12.80;;;8.00;62.60;;;;;;5094812;27;20469;-87
2022/11/27 11:10:29;;;;;;;25.53;13.57;;;8.00;62.20;;;;;;5111912;27;20478;-87
2022/11/27 11:13:22;;;;;;;29.53;14.87;;;8.00;62.40;;;;;;5091839;27;20806;-88
2022/11/27 11:15:55;;;;;;;27.30;13.47;;;8.10;62.40;;;;;;5093780;27;21336;-88
2022/11/27 11:18:24;;;;;;;28.37;12.93;;;8.00;62.40;;;;;;5111056;27;20478;-87
2022/11/27 11:20:53;;;;;;;22.63;13.00;;;8.10;63.00;;;;;;5092594;27;21041;-87
2022/11/27 11:23:25;;;;;;;25.90;13.07;;;8.20;62.60;;;;;;5111823;27;20441;-87
2022/11/27 11:25:56;;;;;;;26.80;14.50;;;8.00;63.00;;;;;;5090791;27;20500;-87
2022/11/27 11:28:25;;;;;;;23.13;13.33;;;8.00;62.40;;;;;;5111322;27;20813;-86
2022/11/27 11:30:56;;;;;;;21.33;13.40;;;7.70;63.70;;;;;;5111344;27;20670;-88
2022/11/27 11:33:23;;;;;;;26.47;13.83;;;7.80;63.80;;;;;;5085234;28;20451;-88
2022/11/27 11:35:56;;;;;;;26.63;14.77;;;7.90;63.60;;;;;;5107712;27;20544;-87
2022/11/27 11:38:29;;;;;;;45.90;18.90;;;8.20;63.50;;;;;;5110202;27;21067;-86
2022/11/27 11:41:02;;;;;;;24.47;12.90;;;8.10;63.00;;;;;;5111145;27;20560;-88
2022/11/27 11:43:34;;;;;;;22.97;13.50;;;7.90;63.20;;;;;;5110844;27;20898;-86
2022/11/27 11:46:21;;;;;;;23.97;12.90;;;7.90;63.50;;;;;;5109893;27;20506;-87
2022/11/27 11:48:57;;;;;;;22.20;12.43;;;7.80;64.30;;;;;;5113970;27;20471;-87
2022/11/27 11:51:54;;;;;;;26.10;14.63;;;8.10;63.90;;;;;;5114577;27;20958;-89
2022/11/27 11:54:38;;;;;;;26.03;16.10;;;8.20;63.60;;;;;;5070849;27;20916;-88
2022/11/27 11:57:16;;;;;;;30.90;17.43;;;8.20;63.20;;;;;;5111403;27;20430;-87
2022/11/27 11:59:51;;;;;;;23.60;13.17;;;8.20;63.30;;;;;;5115031;27;20464;-87
2022/11/27 12:02:37;;;;;;;23.20;13.30;;;8.20;64.40;;;;;;5114139;27;20469;-86
2022/11/27 12:05:18;;;;;;;30.50;22.97;;;8.50;64.20;;;;;;5110933;27;20507;-88
2022/11/27 12:08:02;;;;;;;25.20;13.80;;;8.50;62.70;;;;;;5114700;27;20491;-87
2022/11/27 12:10:37;;;;;;;25.73;15.53;;;8.40;62.80;;;;;;5094246;27;20898;-87
2022/11/27 12:13:12;;;;;;;21.70;11.70;;;8.70;62.60;;;;;;5115283;27;20644;-87
2022/11/27 12:15:46;;;;;;;38.30;19.33;;;8.50;62.70;;;;;;5105096;27;20506;-88
2022/11/27 12:18:23;;;;;;;27.07;20.27;;;8.40;63.40;;;;;;5100986;27;20620;-87
2022/11/27 12:21:11;;;;;;;24.37;14.60;;;8.70;63.00;;;;;;5104979;27;20477;-86
2022/11/27 12:23:50;;;;;;;28.97;17.43;;;8.90;62.70;;;;;;5114759;27;20476;-88
2022/11/27 12:26:28;;;;;;;22.70;12.83;;;9.10;63.30;;;;;;5097331;27;20884;-87
2022/11/27 12:29:22;;;;;;;28.30;15.10;;;9.10;61.50;;;;;;5117098;27;20526;-88
2022/11/27 12:32:08;;;;;;;27.83;14.97;;;9.10;61.60;;;;;;5115292;27;20449;-87
2022/11/27 12:34:43;;;;;;;33.47;18.17;;;9.00;61.90;;;;;;5115482;27;20430;-86
2022/11/27 12:37:27;;;;;;;30.33;16.70;;;9.10;62.20;;;;;;5115935;27;20849;-87
2022/11/27 12:40:06;;;;;;;24.10;16.57;;;9.10;62.30;;;;;;5081703;27;20465;-89
2022/11/27 12:42:42;;;;;;;26.07;15.00;;;9.20;61.70;;;;;;5116545;27;20962;-88
2022/11/27 12:45:17;;;;;;;28.63;15.87;;;9.20;62.40;;;;;;5113932;27;20458;-86
2022/11/27 12:47:50;;;;;;;28.43;15.93;;;9.10;62.10;;;;;;5110300;27;20462;-87
2022/11/27 12:50:24;;;;;;;28.43;16.70;;;9.10;62.50;;;;;;5093949;27;20478;-88
2022/11/27 12:53:02;;;;;;;26.23;16.00;;;9.30;62.10;;;;;;5092689;27;20446;-88
2022/11/27 12:55:33;;;;;;;25.97;14.90;;;9.60;61.80;;;;;;5093862;27;20450;-87
2022/11/27 12:58:05;;;;;;;34.03;17.23;;;9.60;61.20;;;;;;5094954;28;20477;-89